sensor_id;sensor_type;location;lat;lon;timestamp;temperature;humidity
69901;DHT22;57183;50.930;5.406;2023-08-06T00:00:38;16.30;99.90
69901;DHT22;57183;50.930;5.406;2023-08-06T00:03:04;16.30;99.90
69901;DHT22;57183;50.930;5.406;2023-08-06T00:05:29;16.40;99.90
69901;DHT22;57183;50.930;5.406;2023-08-06T00:07:55;16.40;99.90
69901;DHT22;57183;50.930;5.406;2023-08-06T00:10:21;16.40;99.90
69901;DHT22;57183;50.930;5.406;2023-08-06T00:12:46;16.40;99.90
69901;DHT22;57183;50.930;5.406;2023-08-06T00:15:12;16.50;99.90
69901;DHT22;57183;50.930;5.406;2023-08-06T00:17:38;16.50;99.90
69901;DHT22;57183;50.930;5.406;2023-08-06T00:20:05;16.60;99.90
69901;DHT22;57183;50.930;5.406;2023-08-06T00:22:35;16.60;99.90
69901;DHT22;57183;50.930;5.406;2023-08-06T00:25:01;16.60;99.90
69901;DHT22;57183;50.930;5.406;2023-08-06T00:27:27;16.60;99.90
69901;DHT22;57183;50.930;5.406;2023-08-06T00:29:53;16.50;99.90
69901;DHT22;57183;50.930;5.406;2023-08-06T00:32:19;16.60;99.90
69901;DHT22;57183;50.930;5.406;2023-08-06T00:34:44;16.70;99.90
69901;DHT22;57183;50.930;5.406;2023-08-06T00:37:10;16.60;99.90
69901;DHT22;57183;50.930;5.406;2023-08-06T00:39:36;16.50;99.90
69901;DHT22;57183;50.930;5.406;2023-08-06T00:42:01;16.40;99.90
69901;DHT22;57183;50.930;5.406;2023-08-06T00:44:27;16.40;99.90
69901;DHT22;57183;50.930;5.406;2023-08-06T00:46:53;16.30;99.90
69901;DHT22;57183;50.930;5.406;2023-08-06T00:49:19;16.30;99.90
69901;DHT22;57183;50.930;5.406;2023-08-06T00:51:44;16.20;99.90
69901;DHT22;57183;50.930;5.406;2023-08-06T00:54:10;16.30;99.90
69901;DHT22;57183;50.930;5.406;2023-08-06T00:56:37;16.20;99.90
69901;DHT22;57183;50.930;5.406;2023-08-06T00:59:06;16.30;99.90
69901;DHT22;57183;50.930;5.406;2023-08-06T01:01:31;16.30;99.90
69901;DHT22;57183;50.930;5.406;2023-08-06T01:03:57;16.20;99.90
69901;DHT22;57183;50.930;5.406;2023-08-06T01:09:14;16.20;99.90
69901;DHT22;57183;50.930;5.406;2023-08-06T01:12:09;16.20;99.90
69901;DHT22;57183;50.930;5.406;2023-08-06T01:17:08;16.00;99.90
69901;DHT22;57183;50.930;5.406;2023-08-06T01:19:35;16.00;99.90
69901;DHT22;57183;50.930;5.406;2023-08-06T01:22:00;15.90;99.90
69901;DHT22;57183;50.930;5.406;2023-08-06T01:24:26;15.90;99.90
69901;DHT22;57183;50.930;5.406;2023-08-06T01:27:06;15.90;99.90
69901;DHT22;57183;50.930;5.406;2023-08-06T01:29:38;16.00;99.90
69901;DHT22;57183;50.930;5.406;2023-08-06T01:32:05;16.10;99.90
69901;DHT22;57183;50.930;5.406;2023-08-06T01:34:34;16.10;99.90
69901;DHT22;57183;50.930;5.406;2023-08-06T01:37:01;16.10;99.90
69901;DHT22;57183;50.930;5.406;2023-08-06T01:39:27;16.20;99.90
69901;DHT22;57183;50.930;5.406;2023-08-06T01:41:52;16.10;99.90
69901;DHT22;57183;50.930;5.406;2023-08-06T01:44:18;16.00;99.90
69901;DHT22;57183;50.930;5.406;2023-08-06T01:46:44;16.00;99.90
69901;DHT22;57183;50.930;5.406;2023-08-06T01:49:10;16.00;99.90
69901;DHT22;57183;50.930;5.406;2023-08-06T01:51:35;15.90;99.90
69901;DHT22;57183;50.930;5.406;2023-08-06T01:54:01;15.90;99.90
69901;DHT22;57183;50.930;5.406;2023-08-06T01:56:26;15.90;99.90
69901;DHT22;57183;50.930;5.406;2023-08-06T01:58:52;15.90;99.90
69901;DHT22;57183;50.930;5.406;2023-08-06T02:01:18;16.00;99.90
69901;DHT22;57183;50.930;5.406;2023-08-06T02:03:43;16.00;99.90
69901;DHT22;57183;50.930;5.406;2023-08-06T02:06:09;15.90;99.90
69901;DHT22;57183;50.930;5.406;2023-08-06T02:08:34;15.90;99.90
69901;DHT22;57183;50.930;5.406;2023-08-06T02:11:00;15.90;99.90
69901;DHT22;57183;50.930;5.406;2023-08-06T02:13:27;16.00;99.90
69901;DHT22;57183;50.930;5.406;2023-08-06T02:15:52;16.00;99.90
69901;DHT22;57183;50.930;5.406;2023-08-06T02:18:18;16.00;99.90
69901;DHT22;57183;50.930;5.406;2023-08-06T02:20:44;16.10;99.90
69901;DHT22;57183;50.930;5.406;2023-08-06T02:23:19;16.00;99.90
69901;DHT22;57183;50.930;5.406;2023-08-06T02:25:45;16.10;99.90
69901;DHT22;57183;50.930;5.406;2023-08-06T02:28:11;16.10;99.90
69901;DHT22;57183;50.930;5.406;2023-08-06T02:30:36;16.10;99.90
69901;DHT22;57183;50.930;5.406;2023-08-06T02:33:02;16.10;99.90
69901;DHT22;57183;50.930;5.406;2023-08-06T02:35:27;16.10;99.90
69901;DHT22;57183;50.930;5.406;2023-08-06T02:37:53;16.10;99.90
69901;DHT22;57183;50.930;5.406;2023-08-06T02:40:19;16.10;99.90
69901;DHT22;57183;50.930;5.406;2023-08-06T02:42:44;16.10;99.90
69901;DHT22;57183;50.930;5.406;2023-08-06T02:45:10;16.10;99.90
69901;DHT22;57183;50.930;5.406;2023-08-06T02:47:35;16.10;99.90
69901;DHT22;57183;50.930;5.406;2023-08-06T02:50:01;16.10;99.90
69901;DHT22;57183;50.930;5.406;2023-08-06T02:52:27;16.20;99.90
69901;DHT22;57183;50.930;5.406;2023-08-06T02:54:52;16.20;99.90
69901;DHT22;57183;50.930;5.406;2023-08-06T02:57:18;16.30;99.90
69901;DHT22;57183;50.930;5.406;2023-08-06T02:59:43;16.10;99.90
69901;DHT22;57183;50.930;5.406;2023-08-06T03:02:09;16.10;99.90
69901;DHT22;57183;50.930;5.406;2023-08-06T03:04:35;16.20;99.90
69901;DHT22;57183;50.930;5.406;2023-08-06T03:07:00;16.20;99.90
69901;DHT22;57183;50.930;5.406;2023-08-06T03:09:26;16.10;99.90
69901;DHT22;57183;50.930;5.406;2023-08-06T03:11:51;16.10;99.90
69901;DHT22;57183;50.930;5.406;2023-08-06T03:14:17;16.10;99.90
69901;DHT22;57183;50.930;5.406;2023-08-06T03:16:43;16.20;99.90
69901;DHT22;57183;50.930;5.406;2023-08-06T03:19:08;16.20;99.90
69901;DHT22;57183;50.930;5.406;2023-08-06T03:21:34;16.20;99.90
69901;DHT22;57183;50.930;5.406;2023-08-06T03:23:59;16.20;99.90
69901;DHT22;57183;50.930;5.406;2023-08-06T03:26:25;16.20;99.90
69901;DHT22;57183;50.930;5.406;2023-08-06T03:28:51;16.20;99.90
69901;DHT22;57183;50.930;5.406;2023-08-06T03:31:16;16.10;99.90
69901;DHT22;57183;50.930;5.406;2023-08-06T03:33:42;16.20;99.90
69901;DHT22;57183;50.930;5.406;2023-08-06T03:36:07;16.30;99.90
69901;DHT22;57183;50.930;5.406;2023-08-06T03:38:33;16.30;99.90
69901;DHT22;57183;50.930;5.406;2023-08-06T03:40:59;16.40;99.90
69901;DHT22;57183;50.930;5.406;2023-08-06T03:43:24;16.40;99.90
69901;DHT22;57183;50.930;5.406;2023-08-06T03:45:50;16.40;99.90
69901;DHT22;57183;50.930;5.406;2023-08-06T03:48:16;16.40;99.90
69901;DHT22;57183;50.930;5.406;2023-08-06T03:50:41;16.50;99.90
69901;DHT22;57183;50.930;5.406;2023-08-06T03:53:07;16.50;99.90
69901;DHT22;57183;50.930;5.406;2023-08-06T03:55:33;16.50;99.90
69901;DHT22;57183;50.930;5.406;2023-08-06T03:57:58;16.60;99.90
69901;DHT22;57183;50.930;5.406;2023-08-06T04:00:24;16.60;99.90
69901;DHT22;57183;50.930;5.406;2023-08-06T04:02:49;16.50;99.90
69901;DHT22;57183;50.930;5.406;2023-08-06T04:05:16;16.50;99.90
69901;DHT22;57183;50.930;5.406;2023-08-06T04:07:42;16.50;99.90
69901;DHT22;57183;50.930;5.406;2023-08-06T04:10:08;16.50;99.90
69901;DHT22;57183;50.930;5.406;2023-08-06T04:12:34;16.40;99.90
69901;DHT22;57183;50.930;5.406;2023-08-06T04:15:02;16.40;99.90
69901;DHT22;57183;50.930;5.406;2023-08-06T04:17:29;16.30;99.90
69901;DHT22;57183;50.930;5.406;2023-08-06T04:19:54;16.30;99.90
69901;DHT22;57183;50.930;5.406;2023-08-06T04:22:21;16.30;99.90
69901;DHT22;57183;50.930;5.406;2023-08-06T04:24:47;16.30;99.90
69901;DHT22;57183;50.930;5.406;2023-08-06T04:27:14;16.20;99.90
69901;DHT22;57183;50.930;5.406;2023-08-06T04:29:40;16.30;99.90
69901;DHT22;57183;50.930;5.406;2023-08-06T04:32:07;16.30;99.90
69901;DHT22;57183;50.930;5.406;2023-08-06T04:34:34;16.30;99.90
69901;DHT22;57183;50.930;5.406;2023-08-06T04:36:59;16.30;99.90
69901;DHT22;57183;50.930;5.406;2023-08-06T04:39:25;16.30;99.90
69901;DHT22;57183;50.930;5.406;2023-08-06T04:41:51;16.40;99.90
69901;DHT22;57183;50.930;5.406;2023-08-06T04:44:17;16.40;99.90
69901;DHT22;57183;50.930;5.406;2023-08-06T04:46:42;16.40;99.90
69901;DHT22;57183;50.930;5.406;2023-08-06T04:49:08;16.30;99.90
69901;DHT22;57183;50.930;5.406;2023-08-06T04:51:34;16.40;99.90
69901;DHT22;57183;50.930;5.406;2023-08-06T04:53:59;16.40;99.90
69901;DHT22;57183;50.930;5.406;2023-08-06T04:56:25;16.40;99.90
69901;DHT22;57183;50.930;5.406;2023-08-06T04:58:51;16.30;99.90
69901;DHT22;57183;50.930;5.406;2023-08-06T05:01:17;16.40;99.90
69901;DHT22;57183;50.930;5.406;2023-08-06T05:03:42;16.30;99.90
69901;DHT22;57183;50.930;5.406;2023-08-06T05:06:08;16.50;99.90
69901;DHT22;57183;50.930;5.406;2023-08-06T05:08:34;16.40;99.90
69901;DHT22;57183;50.930;5.406;2023-08-06T05:10:59;16.30;99.90
69901;DHT22;57183;50.930;5.406;2023-08-06T05:13:25;16.30;99.90
69901;DHT22;57183;50.930;5.406;2023-08-06T05:15:53;16.10;99.90
69901;DHT22;57183;50.930;5.406;2023-08-06T05:18:18;16.00;99.90
69901;DHT22;57183;50.930;5.406;2023-08-06T05:20:45;15.90;99.90
69901;DHT22;57183;50.930;5.406;2023-08-06T05:23:10;15.90;99.90
69901;DHT22;57183;50.930;5.406;2023-08-06T05:25:36;16.00;99.90
69901;DHT22;57183;50.930;5.406;2023-08-06T05:28:02;15.90;99.90
69901;DHT22;57183;50.930;5.406;2023-08-06T05:30:28;15.80;99.90
69901;DHT22;57183;50.930;5.406;2023-08-06T05:32:54;15.80;99.90
69901;DHT22;57183;50.930;5.406;2023-08-06T05:35:21;15.70;99.90
69901;DHT22;57183;50.930;5.406;2023-08-06T05:37:47;15.70;99.90
69901;DHT22;57183;50.930;5.406;2023-08-06T05:40:13;15.70;99.90
69901;DHT22;57183;50.930;5.406;2023-08-06T05:42:39;15.80;99.90
69901;DHT22;57183;50.930;5.406;2023-08-06T05:45:06;15.80;99.90
69901;DHT22;57183;50.930;5.406;2023-08-06T05:47:31;15.80;99.90
69901;DHT22;57183;50.930;5.406;2023-08-06T05:49:57;15.80;99.90
69901;DHT22;57183;50.930;5.406;2023-08-06T05:52:23;15.80;99.90
69901;DHT22;57183;50.930;5.406;2023-08-06T05:54:48;15.70;99.90
69901;DHT22;57183;50.930;5.406;2023-08-06T05:57:14;15.80;99.90
69901;DHT22;57183;50.930;5.406;2023-08-06T05:59:41;15.80;99.90
69901;DHT22;57183;50.930;5.406;2023-08-06T06:02:06;15.80;99.90
69901;DHT22;57183;50.930;5.406;2023-08-06T06:04:32;15.70;99.90
69901;DHT22;57183;50.930;5.406;2023-08-06T06:06:58;15.70;99.90
69901;DHT22;57183;50.930;5.406;2023-08-06T06:09:23;15.60;99.90
69901;DHT22;57183;50.930;5.406;2023-08-06T06:11:49;15.50;99.90
69901;DHT22;57183;50.930;5.406;2023-08-06T06:14:16;15.50;99.90
69901;DHT22;57183;50.930;5.406;2023-08-06T06:16:42;15.50;99.90
69901;DHT22;57183;50.930;5.406;2023-08-06T06:19:08;15.40;99.90
69901;DHT22;57183;50.930;5.406;2023-08-06T06:21:33;15.40;99.90
69901;DHT22;57183;50.930;5.406;2023-08-06T06:23:59;15.50;99.90
69901;DHT22;57183;50.930;5.406;2023-08-06T06:26:25;15.30;99.90
69901;DHT22;57183;50.930;5.406;2023-08-06T06:28:51;15.30;99.90
69901;DHT22;57183;50.930;5.406;2023-08-06T06:31:16;15.10;99.90
69901;DHT22;57183;50.930;5.406;2023-08-06T06:33:42;14.90;99.90
69901;DHT22;57183;50.930;5.406;2023-08-06T06:36:08;14.80;99.90
69901;DHT22;57183;50.930;5.406;2023-08-06T06:38:34;14.70;99.90
69901;DHT22;57183;50.930;5.406;2023-08-06T06:41:00;14.60;99.90
69901;DHT22;57183;50.930;5.406;2023-08-06T06:43:26;14.60;99.90
69901;DHT22;57183;50.930;5.406;2023-08-06T06:46:01;14.60;99.90
69901;DHT22;57183;50.930;5.406;2023-08-06T06:48:28;14.60;99.90
69901;DHT22;57183;50.930;5.406;2023-08-06T06:50:54;14.60;99.90
69901;DHT22;57183;50.930;5.406;2023-08-06T06:53:20;14.50;99.90
69901;DHT22;57183;50.930;5.406;2023-08-06T06:55:47;14.50;99.90
69901;DHT22;57183;50.930;5.406;2023-08-06T06:58:15;14.40;99.90
69901;DHT22;57183;50.930;5.406;2023-08-06T07:00:41;14.40;99.90
69901;DHT22;57183;50.930;5.406;2023-08-06T07:03:07;14.30;99.90
69901;DHT22;57183;50.930;5.406;2023-08-06T07:05:33;14.30;99.90
69901;DHT22;57183;50.930;5.406;2023-08-06T07:07:58;14.30;99.90
69901;DHT22;57183;50.930;5.406;2023-08-06T07:10:25;14.30;99.90
69901;DHT22;57183;50.930;5.406;2023-08-06T07:12:51;14.20;99.90
69901;DHT22;57183;50.930;5.406;2023-08-06T07:15:16;14.20;99.90
69901;DHT22;57183;50.930;5.406;2023-08-06T07:17:43;14.30;99.90
69901;DHT22;57183;50.930;5.406;2023-08-06T07:20:09;14.20;99.90
69901;DHT22;57183;50.930;5.406;2023-08-06T07:22:34;14.30;99.90
69901;DHT22;57183;50.930;5.406;2023-08-06T07:25:01;14.30;99.90
69901;DHT22;57183;50.930;5.406;2023-08-06T07:27:26;14.30;99.90
69901;DHT22;57183;50.930;5.406;2023-08-06T07:29:52;14.30;99.90
69901;DHT22;57183;50.930;5.406;2023-08-06T07:32:18;14.30;99.90
69901;DHT22;57183;50.930;5.406;2023-08-06T07:34:43;14.40;99.90
69901;DHT22;57183;50.930;5.406;2023-08-06T07:37:09;14.50;99.90
69901;DHT22;57183;50.930;5.406;2023-08-06T07:39:35;14.50;99.90
69901;DHT22;57183;50.930;5.406;2023-08-06T07:42:03;14.50;99.90
69901;DHT22;57183;50.930;5.406;2023-08-06T07:44:31;14.60;99.90
69901;DHT22;57183;50.930;5.406;2023-08-06T07:46:56;14.70;99.90
69901;DHT22;57183;50.930;5.406;2023-08-06T07:49:22;14.70;99.90
69901;DHT22;57183;50.930;5.406;2023-08-06T07:51:48;14.60;99.90
69901;DHT22;57183;50.930;5.406;2023-08-06T07:54:13;14.70;99.90
69901;DHT22;57183;50.930;5.406;2023-08-06T07:56:39;14.70;99.90
69901;DHT22;57183;50.930;5.406;2023-08-06T07:59:05;14.70;99.90
69901;DHT22;57183;50.930;5.406;2023-08-06T08:01:31;14.60;99.90
69901;DHT22;57183;50.930;5.406;2023-08-06T08:03:56;14.60;99.90
69901;DHT22;57183;50.930;5.406;2023-08-06T08:06:22;14.70;99.90
69901;DHT22;57183;50.930;5.406;2023-08-06T08:08:48;14.80;99.90
69901;DHT22;57183;50.930;5.406;2023-08-06T08:11:14;14.70;99.90
69901;DHT22;57183;50.930;5.406;2023-08-06T08:13:41;14.80;99.90
69901;DHT22;57183;50.930;5.406;2023-08-06T08:16:07;14.80;99.90
69901;DHT22;57183;50.930;5.406;2023-08-06T08:18:33;14.80;99.90
69901;DHT22;57183;50.930;5.406;2023-08-06T08:20:58;14.80;99.90
69901;DHT22;57183;50.930;5.406;2023-08-06T08:23:24;14.80;99.90
69901;DHT22;57183;50.930;5.406;2023-08-06T08:25:50;14.80;99.90
69901;DHT22;57183;50.930;5.406;2023-08-06T08:28:15;14.90;99.90
69901;DHT22;57183;50.930;5.406;2023-08-06T08:30:41;15.00;99.90
69901;DHT22;57183;50.930;5.406;2023-08-06T08:33:07;15.10;99.90
69901;DHT22;57183;50.930;5.406;2023-08-06T08:35:33;15.10;99.90
69901;DHT22;57183;50.930;5.406;2023-08-06T08:37:59;15.00;99.90
69901;DHT22;57183;50.930;5.406;2023-08-06T08:40:32;15.00;99.90
69901;DHT22;57183;50.930;5.406;2023-08-06T08:42:58;14.90;99.90
69901;DHT22;57183;50.930;5.406;2023-08-06T08:45:26;14.90;99.90
69901;DHT22;57183;50.930;5.406;2023-08-06T08:47:53;14.80;99.90
69901;DHT22;57183;50.930;5.406;2023-08-06T08:50:20;14.80;99.90
69901;DHT22;57183;50.930;5.406;2023-08-06T08:52:46;14.80;99.90
69901;DHT22;57183;50.930;5.406;2023-08-06T08:55:15;14.80;99.90
69901;DHT22;57183;50.930;5.406;2023-08-06T08:57:41;14.90;99.90
69901;DHT22;57183;50.930;5.406;2023-08-06T09:00:07;14.90;99.90
69901;DHT22;57183;50.930;5.406;2023-08-06T09:02:33;14.90;99.90
69901;DHT22;57183;50.930;5.406;2023-08-06T09:05:00;15.00;99.90
69901;DHT22;57183;50.930;5.406;2023-08-06T09:07:31;15.00;99.90
69901;DHT22;57183;50.930;5.406;2023-08-06T09:10:02;14.90;99.90
69901;DHT22;57183;50.930;5.406;2023-08-06T09:12:29;14.90;99.90
69901;DHT22;57183;50.930;5.406;2023-08-06T09:14:54;14.90;99.90
69901;DHT22;57183;50.930;5.406;2023-08-06T09:17:20;14.80;99.90
69901;DHT22;57183;50.930;5.406;2023-08-06T09:19:47;14.80;99.90
69901;DHT22;57183;50.930;5.406;2023-08-06T09:22:14;14.80;99.90
69901;DHT22;57183;50.930;5.406;2023-08-06T09:24:41;14.90;99.90
69901;DHT22;57183;50.930;5.406;2023-08-06T09:27:11;14.80;99.90
69901;DHT22;57183;50.930;5.406;2023-08-06T09:29:40;14.80;99.90
69901;DHT22;57183;50.930;5.406;2023-08-06T09:32:07;14.80;99.90
69901;DHT22;57183;50.930;5.406;2023-08-06T09:34:32;14.90;99.90
69901;DHT22;57183;50.930;5.406;2023-08-06T09:36:58;14.90;99.90
69901;DHT22;57183;50.930;5.406;2023-08-06T09:39:28;14.90;99.90
69901;DHT22;57183;50.930;5.406;2023-08-06T09:41:58;15.00;99.90
69901;DHT22;57183;50.930;5.406;2023-08-06T09:44:26;15.10;99.90
69901;DHT22;57183;50.930;5.406;2023-08-06T09:46:56;15.10;99.90
69901;DHT22;57183;50.930;5.406;2023-08-06T09:49:26;15.10;99.90
69901;DHT22;57183;50.930;5.406;2023-08-06T09:51:55;15.10;99.90
69901;DHT22;57183;50.930;5.406;2023-08-06T09:54:25;15.00;99.90
69901;DHT22;57183;50.930;5.406;2023-08-06T09:56:55;15.00;99.90
69901;DHT22;57183;50.930;5.406;2023-08-06T09:59:22;15.00;99.90
69901;DHT22;57183;50.930;5.406;2023-08-06T10:01:49;15.00;99.90
69901;DHT22;57183;50.930;5.406;2023-08-06T10:04:15;14.80;99.90
69901;DHT22;57183;50.930;5.406;2023-08-06T10:06:43;14.80;99.90
69901;DHT22;57183;50.930;5.406;2023-08-06T10:09:11;14.90;99.90
69901;DHT22;57183;50.930;5.406;2023-08-06T10:11:37;14.90;99.90
69901;DHT22;57183;50.930;5.406;2023-08-06T10:14:28;15.10;99.90
69901;DHT22;57183;50.930;5.406;2023-08-06T10:16:54;15.20;99.90
69901;DHT22;57183;50.930;5.406;2023-08-06T10:19:23;15.20;99.90
69901;DHT22;57183;50.930;5.406;2023-08-06T10:22:15;15.20;99.90
69901;DHT22;57183;50.930;5.406;2023-08-06T10:24:49;15.20;99.90
69901;DHT22;57183;50.930;5.406;2023-08-06T10:27:23;15.20;99.90
69901;DHT22;57183;50.930;5.406;2023-08-06T10:29:53;15.20;99.90
69901;DHT22;57183;50.930;5.406;2023-08-06T10:32:18;15.20;99.90
69901;DHT22;57183;50.930;5.406;2023-08-06T10:34:57;15.10;99.90
69901;DHT22;57183;50.930;5.406;2023-08-06T10:37:36;15.10;99.90
69901;DHT22;57183;50.930;5.406;2023-08-06T10:40:03;15.10;99.90
69901;DHT22;57183;50.930;5.406;2023-08-06T10:42:30;15.00;99.90
69901;DHT22;57183;50.930;5.406;2023-08-06T10:45:11;15.00;99.90
69901;DHT22;57183;50.930;5.406;2023-08-06T10:47:38;15.00;99.90
69901;DHT22;57183;50.930;5.406;2023-08-06T10:50:07;15.00;99.90
69901;DHT22;57183;50.930;5.406;2023-08-06T10:52:33;15.00;99.90
69901;DHT22;57183;50.930;5.406;2023-08-06T10:54:59;14.80;99.90
69901;DHT22;57183;50.930;5.406;2023-08-06T10:57:24;14.70;99.90
69901;DHT22;57183;50.930;5.406;2023-08-06T10:59:50;14.70;99.90
69901;DHT22;57183;50.930;5.406;2023-08-06T11:02:16;14.60;99.90
69901;DHT22;57183;50.930;5.406;2023-08-06T11:04:42;14.50;99.90
69901;DHT22;57183;50.930;5.406;2023-08-06T11:07:07;14.50;99.90
69901;DHT22;57183;50.930;5.406;2023-08-06T11:09:33;14.40;99.90
69901;DHT22;57183;50.930;5.406;2023-08-06T11:11:59;14.40;99.90
69901;DHT22;57183;50.930;5.406;2023-08-06T11:14:24;14.40;99.90
69901;DHT22;57183;50.930;5.406;2023-08-06T11:16:50;14.50;99.90
69901;DHT22;57183;50.930;5.406;2023-08-06T11:19:16;14.50;99.90
69901;DHT22;57183;50.930;5.406;2023-08-06T11:21:43;14.50;99.90
69901;DHT22;57183;50.930;5.406;2023-08-06T11:24:12;14.50;99.90
69901;DHT22;57183;50.930;5.406;2023-08-06T11:26:38;14.60;99.90
69901;DHT22;57183;50.930;5.406;2023-08-06T11:29:05;14.60;99.90
69901;DHT22;57183;50.930;5.406;2023-08-06T11:31:31;14.60;99.90
69901;DHT22;57183;50.930;5.406;2023-08-06T11:33:57;14.50;99.90
69901;DHT22;57183;50.930;5.406;2023-08-06T11:38:55;14.40;99.90
69901;DHT22;57183;50.930;5.406;2023-08-06T11:41:21;14.30;99.90
69901;DHT22;57183;50.930;5.406;2023-08-06T11:43:47;14.30;99.90
69901;DHT22;57183;50.930;5.406;2023-08-06T11:46:13;14.30;99.90
69901;DHT22;57183;50.930;5.406;2023-08-06T11:48:52;14.40;99.90
69901;DHT22;57183;50.930;5.406;2023-08-06T11:51:17;14.60;99.90
69901;DHT22;57183;50.930;5.406;2023-08-06T11:53:48;14.70;99.90
69901;DHT22;57183;50.930;5.406;2023-08-06T11:56:15;14.80;99.90
69901;DHT22;57183;50.930;5.406;2023-08-06T11:58:42;14.80;99.90
69901;DHT22;57183;50.930;5.406;2023-08-06T12:01:07;14.90;99.90
69901;DHT22;57183;50.930;5.406;2023-08-06T12:03:39;14.90;99.90
69901;DHT22;57183;50.930;5.406;2023-08-06T12:06:04;14.90;99.90
69901;DHT22;57183;50.930;5.406;2023-08-06T12:08:30;15.00;99.90
69901;DHT22;57183;50.930;5.406;2023-08-06T12:10:56;15.00;99.90
69901;DHT22;57183;50.930;5.406;2023-08-06T12:13:21;14.90;99.90
69901;DHT22;57183;50.930;5.406;2023-08-06T12:15:47;14.80;99.90
69901;DHT22;57183;50.930;5.406;2023-08-06T12:18:13;14.70;99.90
69901;DHT22;57183;50.930;5.406;2023-08-06T12:20:38;14.70;99.90
69901;DHT22;57183;50.930;5.406;2023-08-06T12:23:04;14.50;99.90
69901;DHT22;57183;50.930;5.406;2023-08-06T12:25:30;14.50;99.90
69901;DHT22;57183;50.930;5.406;2023-08-06T12:27:55;14.50;99.90
69901;DHT22;57183;50.930;5.406;2023-08-06T12:30:21;14.50;99.90
69901;DHT22;57183;50.930;5.406;2023-08-06T12:32:46;14.50;99.90
69901;DHT22;57183;50.930;5.406;2023-08-06T12:35:12;14.50;99.90
69901;DHT22;57183;50.930;5.406;2023-08-06T12:37:39;14.50;99.90
69901;DHT22;57183;50.930;5.406;2023-08-06T12:40:06;14.50;99.90
69901;DHT22;57183;50.930;5.406;2023-08-06T12:42:31;14.50;99.90
69901;DHT22;57183;50.930;5.406;2023-08-06T12:44:58;14.60;99.90
69901;DHT22;57183;50.930;5.406;2023-08-06T12:47:23;14.70;99.90
69901;DHT22;57183;50.930;5.406;2023-08-06T12:49:49;14.90;99.90
69901;DHT22;57183;50.930;5.406;2023-08-06T12:52:15;14.90;99.90
69901;DHT22;57183;50.930;5.406;2023-08-06T12:54:41;14.80;99.90
69901;DHT22;57183;50.930;5.406;2023-08-06T12:57:07;14.70;99.90
69901;DHT22;57183;50.930;5.406;2023-08-06T12:59:33;14.70;99.90
69901;DHT22;57183;50.930;5.406;2023-08-06T13:02:00;14.60;99.90
69901;DHT22;57183;50.930;5.406;2023-08-06T13:04:25;14.60;99.90
69901;DHT22;57183;50.930;5.406;2023-08-06T13:06:51;14.70;99.90
69901;DHT22;57183;50.930;5.406;2023-08-06T13:09:17;14.60;99.90
69901;DHT22;57183;50.930;5.406;2023-08-06T13:11:43;14.60;99.90
69901;DHT22;57183;50.930;5.406;2023-08-06T13:14:13;14.60;99.90
69901;DHT22;57183;50.930;5.406;2023-08-06T13:16:40;14.60;99.90
69901;DHT22;57183;50.930;5.406;2023-08-06T13:19:07;14.60;99.90
69901;DHT22;57183;50.930;5.406;2023-08-06T13:21:33;14.70;99.90
69901;DHT22;57183;50.930;5.406;2023-08-06T13:24:03;14.80;99.90
69901;DHT22;57183;50.930;5.406;2023-08-06T13:26:32;14.60;99.90
69901;DHT22;57183;50.930;5.406;2023-08-06T13:28:58;14.50;99.90
69901;DHT22;57183;50.930;5.406;2023-08-06T13:31:25;14.50;99.90
69901;DHT22;57183;50.930;5.406;2023-08-06T13:33:51;14.40;99.90
69901;DHT22;57183;50.930;5.406;2023-08-06T13:36:17;14.50;99.90
69901;DHT22;57183;50.930;5.406;2023-08-06T13:38:43;14.50;99.90
69901;DHT22;57183;50.930;5.406;2023-08-06T13:41:08;14.40;99.90
69901;DHT22;57183;50.930;5.406;2023-08-06T13:43:34;14.30;99.90
69901;DHT22;57183;50.930;5.406;2023-08-06T13:46:00;14.30;99.90
69901;DHT22;57183;50.930;5.406;2023-08-06T13:48:25;14.30;99.90
69901;DHT22;57183;50.930;5.406;2023-08-06T13:50:51;14.30;99.90
69901;DHT22;57183;50.930;5.406;2023-08-06T13:53:17;14.40;99.90
69901;DHT22;57183;50.930;5.406;2023-08-06T13:55:42;14.30;99.90
69901;DHT22;57183;50.930;5.406;2023-08-06T13:58:08;14.30;99.90
69901;DHT22;57183;50.930;5.406;2023-08-06T14:00:35;14.30;99.90
69901;DHT22;57183;50.930;5.406;2023-08-06T14:03:01;14.30;99.90
69901;DHT22;57183;50.930;5.406;2023-08-06T14:05:27;14.20;99.90
69901;DHT22;57183;50.930;5.406;2023-08-06T14:07:52;14.20;99.90
69901;DHT22;57183;50.930;5.406;2023-08-06T14:10:18;14.10;99.90
69901;DHT22;57183;50.930;5.406;2023-08-06T14:12:44;14.10;99.90
69901;DHT22;57183;50.930;5.406;2023-08-06T14:15:10;14.10;99.90
69901;DHT22;57183;50.930;5.406;2023-08-06T14:17:36;14.00;99.90
69901;DHT22;57183;50.930;5.406;2023-08-06T14:20:03;14.20;99.90
69901;DHT22;57183;50.930;5.406;2023-08-06T14:22:30;14.20;99.90
69901;DHT22;57183;50.930;5.406;2023-08-06T14:24:57;14.40;99.90
69901;DHT22;57183;50.930;5.406;2023-08-06T14:27:23;14.40;99.90
69901;DHT22;57183;50.930;5.406;2023-08-06T14:29:49;14.40;99.90
69901;DHT22;57183;50.930;5.406;2023-08-06T14:32:14;14.50;99.90
69901;DHT22;57183;50.930;5.406;2023-08-06T14:34:43;14.50;99.90
69901;DHT22;57183;50.930;5.406;2023-08-06T14:37:10;14.50;99.90
69901;DHT22;57183;50.930;5.406;2023-08-06T14:39:35;14.60;99.90
69901;DHT22;57183;50.930;5.406;2023-08-06T14:42:01;14.50;99.90
69901;DHT22;57183;50.930;5.406;2023-08-06T14:44:27;14.50;99.90
69901;DHT22;57183;50.930;5.406;2023-08-06T14:46:53;14.50;99.90
69901;DHT22;57183;50.930;5.406;2023-08-06T14:49:19;14.50;99.90
69901;DHT22;57183;50.930;5.406;2023-08-06T14:51:45;14.50;99.90
69901;DHT22;57183;50.930;5.406;2023-08-06T14:54:10;14.40;99.90
69901;DHT22;57183;50.930;5.406;2023-08-06T14:56:36;14.40;99.90
69901;DHT22;57183;50.930;5.406;2023-08-06T14:59:01;14.20;99.90
69901;DHT22;57183;50.930;5.406;2023-08-06T15:01:28;14.20;99.90
69901;DHT22;57183;50.930;5.406;2023-08-06T15:03:53;14.10;99.90
69901;DHT22;57183;50.930;5.406;2023-08-06T15:06:19;14.00;99.90
69901;DHT22;57183;50.930;5.406;2023-08-06T15:08:45;14.10;99.90
69901;DHT22;57183;50.930;5.406;2023-08-06T15:11:13;14.00;99.90
69901;DHT22;57183;50.930;5.406;2023-08-06T15:13:39;14.00;99.90
69901;DHT22;57183;50.930;5.406;2023-08-06T15:16:04;14.00;99.90
69901;DHT22;57183;50.930;5.406;2023-08-06T15:18:30;14.00;99.90
69901;DHT22;57183;50.930;5.406;2023-08-06T15:20:56;14.00;99.90
69901;DHT22;57183;50.930;5.406;2023-08-06T15:23:23;14.00;99.90
69901;DHT22;57183;50.930;5.406;2023-08-06T15:25:48;13.90;99.90
69901;DHT22;57183;50.930;5.406;2023-08-06T15:28:14;13.90;99.90
69901;DHT22;57183;50.930;5.406;2023-08-06T15:30:40;13.90;99.90
69901;DHT22;57183;50.930;5.406;2023-08-06T15:33:10;14.00;99.90